Time;durP1;ratioP1;P1;durP2;ratioP2;P2;SDS_P1;SDS_P2;PMS_P1;PMS_P2;Temp;Humidity;BMP_temperature;BMP_pressure;BME280_temperature;BME280_humidity;BME280_pressure;Samples;Min_cycle;Max_cycle;Signal;HPM_P1;HPM_P2
2021/12/16 00:09:00;;;;;;;36.83;16.88;;;;;;;5.42;100.00;99288.06;5034756;28;20057;-68
2021/12/16 00:33:16;;;;;;;43.78;23.25;;;;;;;5.34;100.00;99300.03;5034846;28;20543;-68
2021/12/16 00:35:47;;;;;;;47.90;23.00;;;;;;;5.27;100.00;99303.41;5037200;28;20073;-67
2021/12/16 00:38:15;;;;;;;67.78;29.90;;;;;;;5.17;100.00;99297.34;5036586;28;20132;-68
2021/12/16 00:40:43;;;;;;;65.03;30.30;;;;;;;5.12;100.00;99302.44;5032071;28;20155;-67
2021/12/16 00:43:22;;;;;;;55.60;26.05;;;;;;;5.19;100.00;99287.91;5040062;28;20049;-68
2021/12/16 00:48:49;;;;;;;31.02;16.05;;;;;;;5.31;100.00;99303.44;5039347;28;20077;-68
2021/12/16 00:54:11;;;;;;;28.47;15.97;;;;;;;5.10;100.00;99280.97;5039608;28;20057;-67
2021/12/16 00:56:45;;;;;;;28.63;15.70;;;;;;;4.97;100.00;99297.19;5032015;28;20041;-68
2021/12/16 00:59:14;;;;;;;26.27;14.88;;;;;;;5.01;100.00;99286.94;5033460;28;20135;-68
2021/12/16 01:50:11;;;;;;;27.15;15.57;;;;;;;5.37;100.00;99318.06;5026547;28;20065;-69
2021/12/16 01:55:38;;;;;;;29.00;17.40;;;;;;;4.91;100.00;99312.59;5030210;28;20468;-68
2021/12/16 01:58:16;;;;;;;31.25;18.02;;;;;;;5.09;100.00;99327.31;5028297;28;20140;-68
2021/12/16 02:01:10;;;;;;;28.67;16.52;;;;;;;5.28;100.00;99318.88;5018169;28;20485;-69
2021/12/16 02:03:45;;;;;;;28.83;16.00;;;;;;;5.33;100.00;99314.59;5019647;28;20060;-69
2021/12/16 02:08:49;;;;;;;31.73;18.90;;;;;;;5.39;100.00;99313.78;5022439;28;20513;-68
2021/12/16 02:35:45;;;;;;;36.83;20.40;;;;;;;5.04;100.00;99306.69;5025346;28;20128;-67
2021/12/16 02:38:16;;;;;;;32.75;19.10;;;;;;;4.99;100.00;99301.50;5023878;28;20124;-68
2021/12/16 02:40:46;;;;;;;39.25;22.50;;;;;;;4.89;100.00;99296.28;5013318;28;20084;-68
2021/12/16 02:48:31;;;;;;;36.05;20.13;;;;;;;5.22;100.00;99296.53;5020331;28;20124;-68
2021/12/16 02:51:05;;;;;;;27.88;16.67;;;;;;;5.23;100.00;99293.09;5019643;28;20064;-68
2021/12/16 02:53:33;;;;;;;32.50;20.00;;;;;;;4.99;100.00;99290.34;5017322;28;20077;-68
2021/12/16 02:56:00;;;;;;;25.50;15.82;;;;;;;5.14;100.00;99297.31;5014542;28;20084;-68
2021/12/16 02:58:28;;;;;;;36.00;20.20;;;;;;;5.06;100.00;99294.69;5023956;28;20140;-68
2021/12/16 03:01:02;;;;;;;28.00;17.45;;;;;;;5.10;100.00;99291.28;5018976;28;20145;-68
2021/12/16 03:03:30;;;;;;;26.70;15.90;;;;;;;5.08;100.00;99292.13;5018602;28;20069;-68
2021/12/16 03:06:01;;;;;;;28.38;16.85;;;;;;;5.15;100.00;99299.03;5019901;28;20596;-68
2021/12/16 03:08:29;;;;;;;29.33;17.10;;;;;;;5.20;100.00;99295.66;5026532;28;20481;-68
2021/12/16 03:13:40;;;;;;;28.77;18.10;;;;;;;5.16;100.00;99296.47;5013827;28;20119;-68
2021/12/16 03:16:18;;;;;;;33.53;18.35;;;;;;;5.18;100.00;99299.94;5023870;28;20494;-68
2021/12/16 03:19:08;;;;;;;31.75;17.23;;;;;;;5.24;100.00;99306.81;5020903;28;20041;-69
2021/12/16 03:21:43;;;;;;;33.67;19.45;;;;;;;5.12;100.00;99309.31;5018408;28;20078;-67
2021/12/16 03:37:24;;;;;;;29.13;17.70;;;;;;;5.14;100.00;99302.47;5019067;28;20020;-69
2021/12/16 03:39:58;;;;;;;30.70;17.45;;;;;;;5.26;100.00;99304.25;5012944;28;20042;-69
2021/12/16 03:42:30;;;;;;;29.08;16.98;;;;;;;5.29;100.00;99305.16;5028854;28;20049;-68
2021/12/16 03:45:06;;;;;;;32.72;17.23;;;;;;;5.07;100.00;99311.88;5026564;28;20104;-68
2021/12/16 03:47:40;;;;;;;32.58;19.15;;;;;;;5.15;100.00;99306.75;5012426;28;20176;-68
2021/12/16 03:50:20;;;;;;;27.58;16.20;;;;;;;5.37;100.00;99308.63;5024279;28;20136;-68
2021/12/16 03:52:52;;;;;;;35.55;20.35;;;;;;;5.12;100.00;99304.19;5013899;28;20084;-69
2021/12/16 03:55:20;;;;;;;32.70;18.70;;;;;;;5.19;100.00;99309.38;5020522;28;20148;-67
2021/12/16 03:57:47;;;;;;;30.88;18.90;;;;;;;5.36;100.00;99312.06;5018607;28;20073;-68
2021/12/16 04:00:25;;;;;;;33.33;18.73;;;;;;;5.15;100.00;99312.75;5013733;28;20141;-67
2021/12/16 04:02:53;;;;;;;29.35;16.52;;;;;;;5.37;100.00;99312.91;5017524;28;20081;-68
2021/12/16 04:05:21;;;;;;;24.10;15.57;;;;;;;5.47;100.00;99313.81;5024252;28;20049;-68
2021/12/16 04:07:49;;;;;;;25.50;15.10;;;;;;;5.33;100.00;99312.03;5019917;28;20077;-67
2021/12/16 04:10:26;;;;;;;23.33;13.73;;;;;;;5.46;100.00;99315.53;5013698;28;20121;-69
2021/12/16 04:12:54;;;;;;;31.45;17.77;;;;;;;5.11;100.00;99315.31;5022029;28;20534;-68
2021/12/16 04:15:21;;;;;;;26.17;16.42;;;;;;;5.28;100.00;99315.44;5012203;28;20542;-69
2021/12/16 04:17:48;;;;;;;22.75;14.68;;;;;;;5.45;100.00;99321.53;5020847;28;20084;-68
2021/12/16 04:20:16;;;;;;;23.38;14.20;;;;;;;5.38;100.00;99317.19;5015256;28;20077;-68
2021/12/16 04:22:46;;;;;;;30.83;18.15;;;;;;;5.13;100.00;99311.03;5020176;28;20046;-68
2021/12/16 04:25:23;;;;;;;28.63;17.08;;;;;;;5.22;100.00;99318.81;5024810;28;20128;-68
2021/12/16 04:27:53;;;;;;;21.98;14.30;;;;;;;5.39;100.00;99324.09;5014428;28;20405;-68
2021/12/16 04:30:23;;;;;;;27.20;16.50;;;;;;;5.17;100.00;99325.66;5011657;28;20125;-68
2021/12/16 04:32:51;;;;;;;26.00;17.27;;;;;;;4.99;100.00;99324.66;5017216;28;20048;-68
2021/12/16 04:35:18;;;;;;;24.83;15.88;;;;;;;5.32;100.00;99324.91;5016326;28;20139;-68
2021/12/16 04:37:46;;;;;;;24.23;15.77;;;;;;;5.42;100.00;99326.69;5022190;28;20129;-68
2021/12/16 04:40:14;;;;;;;23.27;15.32;;;;;;;5.43;100.00;99326.69;5022194;28;20156;-68
2021/12/16 04:42:44;;;;;;;27.58;16.73;;;;;;;5.33;100.00;99329.19;5020850;28;20181;-67
2021/12/16 04:45:14;;;;;;;29.08;17.90;;;;;;;5.05;100.00;99333.28;5028613;28;20132;-68
2021/12/16 04:47:41;;;;;;;34.38;19.50;;;;;;;4.91;100.00;99326.31;5023928;28;20041;-68
2021/12/16 04:50:11;;;;;;;26.25;15.80;;;;;;;5.09;100.00;99323.03;5019729;28;20054;-68
2021/12/16 04:52:39;;;;;;;24.55;14.82;;;;;;;5.16;100.00;99334.25;5022369;28;20061;-68
2021/12/16 04:55:08;;;;;;;32.35;20.63;;;;;;;4.98;100.00;99335.81;5017700;28;20046;-68
2021/12/16 04:57:36;;;;;;;30.35;18.73;;;;;;;4.97;100.00;99333.22;5016260;28;20077;-69
2021/12/16 05:00:07;;;;;;;29.10;17.70;;;;;;;5.06;100.00;99328.13;5021920;28;20069;-69
2021/12/16 05:02:35;;;;;;;32.90;19.33;;;;;;;5.15;100.00;99333.34;5021210;28;20128;-68
2021/12/16 05:05:03;;;;;;;27.25;17.10;;;;;;;5.07;100.00;99340.19;5029280;28;20049;-68
2021/12/16 05:07:30;;;;;;;27.75;16.73;;;;;;;5.17;100.00;99336.81;5027639;28;20200;-67
2021/12/16 05:10:10;;;;;;;26.85;16.40;;;;;;;5.05;100.00;99341.88;5023913;28;20605;-68
2021/12/16 05:12:45;;;;;;;28.33;16.70;;;;;;;5.18;100.00;99348.84;5016801;28;20049;-67
2021/12/16 05:15:20;;;;;;;30.95;18.77;;;;;;;5.20;100.00;99343.69;5014716;28;20042;-68
2021/12/16 05:17:51;;;;;;;23.63;14.52;;;;;;;5.36;100.00;99340.38;5015578;28;20481;-68
2021/12/16 05:20:25;;;;;;;32.50;17.08;;;;;;;5.55;100.00;99345.66;5023948;28;20085;-68
2021/12/16 05:28:28;;;;;;;32.03;19.40;;;;;;;5.21;100.00;99341.13;5019527;28;20156;-67
2021/12/16 05:30:56;;;;;;;24.13;15.77;;;;;;;5.40;100.00;99338.69;5016657;28;20081;-68
2021/12/16 05:33:24;;;;;;;28.38;17.13;;;;;;;5.42;100.00;99344.72;5020422;28;20608;-68
2021/12/16 05:35:52;;;;;;;24.95;15.73;;;;;;;5.47;100.00;99344.72;5026464;28;20125;-67
2021/12/16 05:38:20;;;;;;;28.55;15.95;;;;;;;5.13;100.00;99353.09;5037351;28;20490;-67
2021/12/16 05:40:48;;;;;;;28.50;17.23;;;;;;;5.21;100.00;99358.28;5026942;28;20145;-67
2021/12/16 05:43:17;;;;;;;31.90;18.38;;;;;;;5.01;100.00;99358.13;5024110;28;20231;-69
2021/12/16 05:45:46;;;;;;;25.75;15.98;;;;;;;5.17;100.00;99364.25;5025103;28;20128;-68
2021/12/16 05:48:16;;;;;;;31.50;20.52;;;;;;;5.02;100.00;99362.44;5034440;28;20120;-67
2021/12/16 05:50:47;;;;;;;48.53;26.45;;;;;;;5.05;100.00;99365.03;5019375;28;20504;-68
2021/12/16 05:53:15;;;;;;;38.95;22.88;;;;;;;4.94;100.00;99361.50;5019696;28;20161;-68
2021/12/16 05:55:43;;;;;;;38.10;21.85;;;;;;;5.12;100.00;99371.94;5016353;28;20081;-67
2021/12/16 05:58:15;;;;;;;28.38;17.17;;;;;;;5.40;100.00;99374.72;5028647;28;20041;-68
2021/12/16 06:00:46;;;;;;;37.88;18.98;;;;;;;5.26;100.00;99373.78;5019102;28;20119;-68
2021/12/16 06:03:13;;;;;;;29.63;18.38;;;;;;;5.32;100.00;99379.84;5029198;28;20076;-68
2021/12/16 06:05:41;;;;;;;33.50;19.05;;;;;;;5.35;100.00;99379.00;5021957;28;20050;-67
2021/12/16 06:08:09;;;;;;;35.58;18.02;;;;;;;5.59;100.00;99394.63;5013692;28;20172;-68
2021/12/16 06:11:16;;;;;;;24.10;14.88;;;;;;;5.66;100.00;99383.50;5022569;28;20414;-68
2021/12/16 06:13:36;;;;;;;26.40;16.13;;;;;;;5.53;100.00;99388.56;5019370;28;20049;-67
2021/12/16 06:29:21;;;;;;;56.60;29.77;;;;;;;5.05;100.00;99384.78;5024781;28;20053;-68
2021/12/16 06:31:49;;;;;;;46.95;25.60;;;;;;;4.90;100.00;99381.19;5025150;28;20439;-67
2021/12/16 06:34:17;;;;;;;37.78;20.15;;;;;;;4.97;100.00;99387.25;5014163;28;20140;-67
2021/12/16 06:36:44;;;;;;;29.58;18.17;;;;;;;5.01;100.00;99387.28;5020258;28;20466;-68
2021/12/16 06:39:12;;;;;;;28.00;17.67;;;;;;;5.11;100.00;99382.22;5029731;28;20473;-68
2021/12/16 06:41:40;;;;;;;34.30;20.33;;;;;;;5.17;100.00;99385.72;5030129;28;20060;-68
2021/12/16 06:44:18;;;;;;;29.70;17.83;;;;;;;5.18;100.00;99390.03;5027796;28;20128;-67
2021/12/16 06:46:47;;;;;;;26.88;16.15;;;;;;;5.53;100.00;99383.41;5031307;28;20413;-68
2021/12/16 06:49:19;;;;;;;28.60;17.27;;;;;;;5.41;100.00;99390.22;5030473;28;20057;-68
2021/12/16 06:52:00;;;;;;;36.97;21.15;;;;;;;5.36;100.00;99385.84;5030831;28;20045;-68
2021/12/16 06:54:33;;;;;;;26.58;17.65;;;;;;;5.50;100.00;99383.41;5028500;28;20472;-67
2021/12/16 06:57:17;;;;;;;36.53;19.65;;;;;;;5.30;100.00;99384.13;5029100;28;20419;-68
2021/12/16 07:00:07;;;;;;;25.08;15.43;;;;;;;5.54;100.00;99388.59;5027633;28;20084;-68
2021/12/16 07:05:28;;;;;;;39.47;21.75;;;;;;;5.22;100.00;99389.22;5016213;28;20065;-69
2021/12/16 07:07:56;;;;;;;37.97;23.30;;;;;;;5.13;100.00;99394.28;5010953;28;20116;-67
2021/12/16 07:10:24;;;;;;;37.17;23.42;;;;;;;5.03;100.00;99398.47;5010969;28;20100;-67
2021/12/16 07:12:54;;;;;;;33.95;20.95;;;;;;;5.11;100.00;99392.53;5020161;28;20173;-68
2021/12/16 07:15:24;;;;;;;26.25;17.15;;;;;;;5.36;100.00;99393.56;5030089;28;20095;-68
2021/12/16 07:17:53;;;;;;;48.17;30.20;;;;;;;5.02;100.00;99395.91;5030268;28;20306;-67
2021/12/16 07:20:26;;;;;;;41.95;25.50;;;;;;;5.10;100.00;99401.09;5016736;28;20064;-68
2021/12/16 07:22:55;;;;;;;34.70;22.42;;;;;;;5.09;100.00;99407.97;5010400;28;20112;-68
2021/12/16 07:25:22;;;;;;;31.98;20.13;;;;;;;5.29;100.00;99410.72;5008449;28;20145;-68
2021/12/16 07:27:50;;;;;;;33.65;20.42;;;;;;;5.43;100.00;99415.97;5010077;28;20088;-68
2021/12/16 07:30:19;;;;;;;35.15;20.50;;;;;;;5.49;100.00;99418.56;5010612;28;20153;-68
2021/12/16 07:32:47;;;;;;;37.22;21.67;;;;;;;5.61;100.00;99413.53;5009044;28;20149;-68
2021/12/16 07:35:18;;;;;;;29.45;17.73;;;;;;;5.75;100.00;99421.34;5010056;28;20054;-68
2021/12/16 07:37:46;;;;;;;29.90;18.08;;;;;;;5.83;100.00;99426.53;5021315;28;20576;-68
2021/12/16 07:40:15;;;;;;;31.08;19.13;;;;;;;5.67;100.00;99428.16;5029680;28;20556;-68
2021/12/16 07:45:30;;;;;;;31.75;16.40;;;;;;;5.71;100.00;99437.63;5029797;28;20132;-68
2021/12/16 07:47:58;;;;;;;34.00;21.17;;;;;;;5.43;100.00;99434.88;5028869;28;20136;-68
2021/12/16 07:50:26;;;;;;;30.85;17.60;;;;;;;5.68;100.00;99447.03;5029522;28;20053;-68
2021/12/16 07:52:54;;;;;;;45.65;24.35;;;;;;;5.35;100.00;99456.25;5028629;28;20088;-69
2021/12/16 07:55:22;;;;;;;34.05;19.67;;;;;;;5.71;100.00;99458.25;5027085;28;20088;-68
2021/12/16 07:57:50;;;;;;;30.00;17.25;;;;;;;5.70;100.00;99460.81;5017407;28;20545;-68
2021/12/16 08:00:24;;;;;;;30.40;18.00;;;;;;;5.83;100.00;99463.47;5010947;28;20129;-68
2021/12/16 08:02:52;;;;;;;33.67;20.33;;;;;;;5.78;100.00;99465.16;5009866;28;20133;-68
2021/12/16 08:05:22;;;;;;;33.10;18.52;;;;;;;5.73;100.00;99464.28;5009444;28;20104;-68
2021/12/16 08:07:50;;;;;;;30.27;18.17;;;;;;;5.71;100.00;99465.97;5010046;28;20156;-68
2021/12/16 08:10:20;;;;;;;27.65;17.67;;;;;;;6.00;100.00;99468.78;5010037;28;20495;-68
2021/12/16 08:12:47;;;;;;;31.05;19.02;;;;;;;6.06;100.00;99475.69;5024456;28;20091;-68
2021/12/16 08:15:16;;;;;;;24.42;16.20;;;;;;;5.78;100.00;99479.78;5029902;28;20124;-67
2021/12/16 08:17:44;;;;;;;29.20;18.48;;;;;;;5.91;100.00;99484.16;5049950;28;20048;-68
2021/12/16 08:20:16;;;;;;;25.42;17.08;;;;;;;5.96;100.00;99487.66;5049968;28;20044;-68
2021/12/16 08:22:45;;;;;;;24.65;16.75;;;;;;;5.63;100.00;99490.81;5053583;28;20056;-67
2021/12/16 08:25:12;;;;;;;24.95;14.90;;;;;;;5.96;100.00;99487.66;5038156;28;20144;-68
2021/12/16 08:27:40;;;;;;;24.38;15.75;;;;;;;5.96;100.00;99492.81;5033590;28;20141;-67
2021/12/16 08:30:10;;;;;;;25.75;14.60;;;;;;;6.11;100.00;99484.28;5051017;28;20091;-67
2021/12/16 08:32:38;;;;;;;26.80;16.30;;;;;;;6.26;100.00;99492.13;5053519;28;20132;-68
2021/12/16 08:35:07;;;;;;;24.65;15.43;;;;;;;6.23;100.00;99497.28;5050524;28;20056;-68
2021/12/16 08:37:35;;;;;;;28.08;17.90;;;;;;;6.19;100.00;99494.69;5032576;28;20088;-68
2021/12/16 08:40:08;;;;;;;29.98;20.50;;;;;;;6.13;100.00;99497.22;5024035;28;20045;-68
2021/12/16 08:42:36;;;;;;;26.30;16.42;;;;;;;6.28;100.00;99492.16;5022832;28;20441;-68
2021/12/16 08:45:06;;;;;;;33.28;20.80;;;;;;;6.12;100.00;99493.78;5032891;28;20123;-68
2021/12/16 08:47:34;;;;;;;29.25;18.50;;;;;;;5.98;100.00;99488.53;5051145;28;20132;-67
2021/12/16 08:50:02;;;;;;;34.40;20.98;;;;;;;5.82;100.00;99497.84;5048598;28;20473;-68
2021/12/16 08:52:30;;;;;;;35.95;21.65;;;;;;;5.63;100.00;99496.84;5013084;28;20077;-68
2021/12/16 08:54:59;;;;;;;40.38;23.17;;;;;;;5.55;100.00;99490.75;5021564;28;20490;-68
2021/12/16 08:57:28;;;;;;;51.78;30.25;;;;;;;5.45;100.00;99500.13;5053359;28;20081;-68
2021/12/16 08:59:55;;;;;;;48.78;30.15;;;;;;;5.37;100.00;99513.78;5044486;28;20092;-68
2021/12/16 09:02:23;;;;;;;41.05;24.90;;;;;;;5.40;100.00;99513.78;5048464;28;20107;-67
2021/12/16 09:04:51;;;;;;;34.72;22.15;;;;;;;5.79;100.00;99507.25;5050359;28;20057;-68
2021/12/16 09:07:19;;;;;;;27.85;18.33;;;;;;;6.02;100.00;99512.59;5052691;28;20144;-68
2021/12/16 09:09:47;;;;;;;31.55;19.73;;;;;;;5.86;100.00;99517.63;5026176;28;20570;-68
2021/12/16 09:14:58;;;;;;;30.15;18.45;;;;;;;6.39;100.00;99523.16;5052214;28;20106;-68
2021/12/16 09:17:26;;;;;;;27.27;18.45;;;;;;;6.50;100.00;99526.66;5034478;28;20458;-68
2021/12/16 09:19:55;;;;;;;23.67;16.52;;;;;;;6.74;100.00;99523.31;5025509;28;20152;-68
2021/12/16 09:22:25;;;;;;;32.35;20.10;;;;;;;6.85;100.00;99520.78;5031148;28;20117;-68
2021/12/16 09:24:53;;;;;;;27.50;16.70;;;;;;;7.02;100.00;99531.16;5016736;28;20081;-68
2021/12/16 09:27:21;;;;;;;31.77;18.00;;;;;;;7.01;100.00;99526.88;5031875;28;20088;-67
2021/12/16 09:29:49;;;;;;;25.63;16.08;;;;;;;7.21;100.00;99520.03;5032222;28;20662;-69
2021/12/16 09:32:17;;;;;;;29.15;18.42;;;;;;;7.27;100.00;99526.91;5049976;28;20552;-69
2021/12/16 09:34:45;;;;;;;26.05;16.85;;;;;;;7.48;100.00;99531.25;5049959;28;20175;-69
2021/12/16 09:37:13;;;;;;;27.65;16.10;;;;;;;7.62;100.00;99528.66;5021684;28;20088;-68
2021/12/16 09:39:40;;;;;;;26.60;16.73;;;;;;;7.40;100.00;99535.56;5029371;28;20135;-68
2021/12/16 09:42:09;;;;;;;21.65;14.10;;;;;;;7.56;100.00;99533.84;5023897;28;20150;-69
2021/12/16 09:44:38;;;;;;;25.00;15.38;;;;;;;7.66;100.00;99527.81;5024942;28;20053;-69
2021/12/16 09:47:10;;;;;;;29.88;18.13;;;;;;;7.75;100.00;99526.13;5028908;28;20563;-68
2021/12/16 09:49:38;;;;;;;25.23;15.00;;;;;;;7.80;100.00;99530.41;5039354;28;20136;-69
2021/12/16 09:52:07;;;;;;;22.48;13.25;;;;;;;7.96;100.00;99524.38;5025440;28;20052;-68
2021/12/16 09:54:35;;;;;;;20.05;11.57;;;;;;;8.07;100.00;99529.53;5033595;28;20141;-68
2021/12/16 09:57:03;;;;;;;19.52;13.00;;;;;;;7.71;100.00;99521.81;5031095;28;20048;-68
2021/12/16 09:59:33;;;;;;;20.23;13.13;;;;;;;7.57;100.00;99530.41;5027650;28;20088;-69
2021/12/16 10:02:04;;;;;;;41.20;22.35;;;;;;;7.50;100.00;99529.53;5020695;28;20144;-68
2021/12/16 10:04:33;;;;;;;51.47;25.48;;;;;;;7.37;100.00;99531.25;5030170;28;20050;-68
2021/12/16 10:07:11;;;;;;;39.13;21.70;;;;;;;7.43;100.00;99525.22;5026694;28;20079;-68
2021/12/16 10:09:41;;;;;;;34.13;20.83;;;;;;;7.73;100.00;99532.13;5016044;28;20136;-69
2021/12/16 10:12:14;;;;;;;33.92;21.80;;;;;;;7.52;100.00;99538.16;5014657;28;20128;-69
2021/12/16 10:17:27;;;;;;;35.72;19.80;;;;;;;7.85;100.00;99533.88;5020562;28;20137;-68
2021/12/16 10:19:58;;;;;;;30.27;18.42;;;;;;;8.11;100.00;99532.09;5025075;28;20103;-69
2021/12/16 10:22:39;;;;;;;30.25;15.73;;;;;;;8.02;100.00;99532.13;5044819;28;20045;-69
2021/12/16 10:25:18;;;;;;;22.27;14.07;;;;;;;8.37;100.00;99534.66;5045666;28;20140;-68
2021/12/16 10:27:56;;;;;;;16.27;10.18;;;;;;;8.37;100.00;99529.50;5021447;28;20132;-69
2021/12/16 10:30:25;;;;;;;15.98;10.07;;;;;;;7.95;100.00;99533.84;5029430;28;20076;-68
2021/12/16 10:32:54;;;;;;;17.77;11.27;;;;;;;8.13;100.00;99526.94;5024485;28;20065;-69
2021/12/16 10:35:30;;;;;;;16.23;10.32;;;;;;;7.94;100.00;99536.47;5013251;28;20084;-68
2021/12/16 10:38:09;;;;;;;18.38;11.35;;;;;;;7.72;100.00;99533.00;5024377;28;20128;-68
2021/12/16 10:40:59;;;;;;;16.90;10.23;;;;;;;8.05;100.00;99533.84;5020235;28;20085;-68
2021/12/16 10:43:30;;;;;;;20.02;11.52;;;;;;;7.83;100.00;99533.88;5022767;28;20450;-68
2021/12/16 10:46:03;;;;;;;18.13;11.38;;;;;;;7.95;100.00;99539.03;5012026;28;20056;-69
2021/12/16 10:48:36;;;;;;;19.67;10.77;;;;;;;7.99;100.00;99539.03;5030219;28;20723;-69
2021/12/16 10:51:38;;;;;;;15.85;9.68;;;;;;;8.30;100.00;99539.84;5010134;28;20077;-67
2021/12/16 10:54:21;;;;;;;15.98;10.98;;;;;;;8.43;100.00;99538.97;5006750;28;20132;-68
2021/12/16 10:57:12;;;;;;;19.45;11.52;;;;;;;8.53;100.00;99542.41;5012578;28;20513;-68
2021/12/16 10:59:44;;;;;;;15.43;9.80;;;;;;;8.70;100.00;99534.59;5028660;28;20389;-69
2021/12/16 11:02:14;;;;;;;15.93;8.73;;;;;;;8.59;100.00;99537.22;5017945;28;20108;-68
2021/12/16 11:04:54;;;;;;;14.65;9.30;;;;;;;8.37;100.00;99536.41;5030677;28;20064;-69
2021/12/16 11:07:31;;;;;;;14.88;7.80;;;;;;;8.56;100.00;99530.31;5027963;28;20232;-68
2021/12/16 11:10:28;;;;;;;14.52;8.88;;;;;;;8.74;100.00;99533.72;5018990;28;20088;-69
2021/12/16 11:13:09;;;;;;;14.75;7.78;;;;;;;8.60;100.00;99531.19;5018634;28;20140;-68
2021/12/16 11:15:46;;;;;;;19.70;9.90;;;;;;;8.69;100.00;99530.25;5027620;28;20125;-68
2021/12/16 11:18:14;;;;;;;18.63;9.48;;;;;;;9.03;100.00;99522.34;5024727;28;20051;-68
2021/12/16 11:20:52;;;;;;;19.20;8.65;;;;;;;9.19;100.00;99530.06;5015460;28;20421;-68
2021/12/16 11:23:28;;;;;;;13.32;7.97;;;;;;;9.06;100.00;99522.34;5022614;28;20057;-67
2021/12/16 11:26:01;;;;;;;20.65;9.35;;;;;;;9.08;100.00;99521.47;5025042;28;20135;-68
2021/12/16 11:28:55;;;;;;;10.40;5.65;;;;;;;8.99;100.00;99518.94;5013538;28;20042;-69
2021/12/16 11:31:30;;;;;;;17.10;6.32;;;;;;;8.68;100.00;99515.63;5027352;28;20053;-68
2021/12/16 11:34:03;;;;;;;9.80;5.95;;;;;;;8.33;100.00;99513.97;5025711;28;20596;-69
2021/12/16 11:36:44;;;;;;;11.65;6.40;;;;;;;8.36;100.00;99514.81;5011335;28;20553;-69
2021/12/16 11:39:18;;;;;;;12.73;6.05;;;;;;;8.53;100.00;99514.81;5027725;28;20594;-69
2021/12/16 11:42:01;;;;;;;15.57;6.80;;;;;;;8.54;100.00;99513.94;5029999;28;20478;-69
2021/12/16 11:44:46;;;;;;;11.05;6.32;;;;;;;8.43;100.00;99512.25;5027565;28;20059;-68
2021/12/16 11:47:24;;;;;;;12.65;7.10;;;;;;;8.26;100.00;99517.44;5029496;28;20454;-68
2021/12/16 11:49:55;;;;;;;10.85;6.38;;;;;;;8.44;100.00;99522.59;5025158;28;20473;-69
2021/12/16 11:52:25;;;;;;;14.55;7.38;;;;;;;8.29;100.00;99520.03;5021682;28;20421;-68
2021/12/16 11:55:00;;;;;;;14.45;6.45;;;;;;;8.36;100.00;99519.13;5019115;28;20073;-69
2021/12/16 11:57:29;;;;;;;9.55;5.93;;;;;;;8.59;100.00;99524.28;5015299;28;20069;-69
2021/12/16 11:59:59;;;;;;;10.27;6.07;;;;;;;8.57;100.00;99510.47;5049775;28;20140;-68
2021/12/16 12:02:32;;;;;;;11.82;5.60;;;;;;;8.74;100.00;99521.63;5048325;28;20151;-69
2021/12/16 12:05:20;;;;;;;11.73;5.93;;;;;;;8.69;100.00;99506.97;5037509;28;20295;-69
2021/12/16 12:07:50;;;;;;;9.13;4.70;;;;;;;8.61;100.00;99516.50;5016396;28;20050;-69
2021/12/16 12:10:39;;;;;;;8.77;5.13;;;;;;;8.79;100.00;99519.03;5023610;28;20076;-68
2021/12/16 12:13:08;;;;;;;13.07;5.70;;;;;;;8.73;100.00;99517.31;5017722;28;20136;-68
2021/12/16 12:15:57;;;;;;;9.25;5.10;;;;;;;8.86;100.00;99510.34;5018644;28;20084;-68
2021/12/16 12:18:43;;;;;;;8.93;4.65;;;;;;;9.11;100.00;99503.31;5010606;28;20133;-69
2021/12/16 12:21:32;;;;;;;9.18;4.70;;;;;;;8.84;100.00;99506.06;5028552;28;20053;-69
2021/12/16 12:24:19;;;;;;;8.25;3.90;;;;;;;8.96;100.00;99500.81;5027843;28;20124;-68
2021/12/16 12:26:52;;;;;;;8.77;4.40;;;;;;;8.85;100.00;99500.88;5021327;28;20053;-68
2021/12/16 12:29:33;;;;;;;9.48;4.22;;;;;;;9.01;100.00;99501.66;5012325;28;20080;-68
2021/12/16 12:32:02;;;;;;;9.43;4.30;;;;;;;8.91;100.00;99503.41;5022892;28;20502;-69
2021/12/16 12:34:31;;;;;;;6.93;3.88;;;;;;;8.90;100.00;99501.72;5023350;28;20520;-68
2021/12/16 12:37:01;;;;;;;8.95;4.50;;;;;;;8.70;100.00;99501.78;5023808;28;20081;-69
2021/12/16 12:39:35;;;;;;;10.57;4.40;;;;;;;8.86;100.00;99509.50;5018691;28;20046;-69
2021/12/16 12:42:04;;;;;;;6.72;3.85;;;;;;;9.00;100.00;99503.38;5025711;28;20496;-69
2021/12/16 12:44:32;;;;;;;6.28;3.50;;;;;;;9.04;100.00;99500.78;5015375;28;20136;-69
2021/12/16 12:47:02;;;;;;;9.05;3.70;;;;;;;8.77;100.00;99503.47;5035029;28;20077;-69
2021/12/16 12:49:30;;;;;;;10.70;3.35;;;;;;;8.55;100.00;99501.84;5024954;28;20472;-69
2021/12/16 12:52:13;;;;;;;8.55;3.28;;;;;;;8.42;100.00;99498.47;5008904;28;20141;-69
2021/12/16 12:54:45;;;;;;;5.95;3.30;;;;;;;8.52;100.00;99499.28;5006621;28;20058;-69
2021/12/16 12:57:30;;;;;;;6.97;2.63;;;;;;;8.44;100.00;99499.31;5021205;28;20063;-69
2021/12/16 12:59:59;;;;;;;5.03;2.53;;;;;;;8.54;100.00;99505.31;5015776;28;20493;-69
2021/12/16 13:02:32;;;;;;;11.23;2.80;;;;;;;8.53;100.00;99499.28;5020133;28;20057;-67
2021/12/16 13:05:09;;;;;;;7.32;3.15;;;;;;;8.48;100.00;99497.56;5015900;28;20370;-68
2021/12/16 13:07:38;;;;;;;9.60;3.28;;;;;;;8.56;100.00;99501.00;5025535;28;20140;-69
2021/12/16 13:10:12;;;;;;;8.65;2.78;;;;;;;8.81;100.00;99503.50;5016315;28;20049;-69
2021/12/16 13:12:48;;;;;;;7.88;3.08;;;;;;;8.87;100.00;99500.84;5027529;28;20088;-69
2021/12/16 13:24:07;;;;;;;8.68;3.00;;;;;;;9.27;100.00;99492.88;5024439;28;20100;-69
2021/12/16 13:27:13;;;;;;;6.95;3.03;;;;;;;9.43;100.00;99487.56;5025288;28;20053;-69
2021/12/16 13:29:53;;;;;;;9.43;3.45;;;;;;;9.55;100.00;99486.59;5023603;28;20085;-69
2021/12/16 13:32:28;;;;;;;6.85;2.65;;;;;;;9.40;100.00;99491.91;5036590;28;20151;-69
2021/12/16 13:35:12;;;;;;;6.82;2.92;;;;;;;9.51;100.00;99484.91;5026812;28;20573;-69
2021/12/16 13:37:45;;;;;;;7.53;3.20;;;;;;;9.51;100.00;99487.50;5032974;28;20156;-68
2021/12/16 13:40:37;;;;;;;8.60;3.22;;;;;;;9.54;100.00;99487.47;5027720;28;20072;-68
2021/12/16 13:43:18;;;;;;;11.27;3.80;;;;;;;9.30;100.00;99477.28;5037531;28;20067;-68
2021/12/16 13:46:24;;;;;;;7.40;3.42;;;;;;;9.49;100.00;99476.28;5039451;28;20092;-67
2021/12/16 14:06:17;;;;;;;6.45;3.03;;;13.80;99.90;;;10.54;100.00;99480.50;5028617;28;20128;-68
2021/12/16 14:08:50;;;;;;;9.90;3.22;;;13.10;99.90;;;10.91;100.00;99478.28;5028817;28;20057;-69
2021/12/16 14:17:42;;;;;;;6.68;3.33;;;14.30;99.90;;;10.95;100.00;99497.25;5021813;28;20089;-68
2021/12/16 14:23:21;;;;;;;10.00;3.53;;;13.00;99.90;;;10.09;100.00;99487.88;5024899;28;20132;-68
2021/12/16 14:42:43;;;;;;;7.72;3.00;;;10.30;99.90;;;9.05;100.00;99502.50;5008379;28;20054;-68
2021/12/16 14:48:22;;;;;;;6.72;2.90;;;10.20;99.90;;;9.24;100.00;99503.22;5019104;28;20050;-69
2021/12/16 14:51:11;;;;;;;8.20;3.40;;;10.10;99.90;;;9.03;100.00;99499.91;5024732;28;20236;-69
2021/12/16 14:53:42;;;;;;;8.13;3.38;;;10.10;99.90;;;8.88;100.00;99497.41;5041674;28;20135;-68
2021/12/16 14:56:20;;;;;;;7.38;3.75;;;10.00;99.90;;;8.77;100.00;99503.47;5026101;28;20552;-69
2021/12/16 14:59:00;;;;;;;9.40;3.60;;;9.90;99.90;;;8.73;100.00;99504.34;5026994;28;20060;-69
2021/12/16 15:01:33;;;;;;;8.55;2.90;;;9.80;99.90;;;8.78;100.00;99509.50;5024712;28;20135;-69
2021/12/16 15:04:03;;;;;;;7.60;3.78;;;9.80;99.90;;;8.58;100.00;99513.06;5034244;28;20133;-68
2021/12/16 15:06:42;;;;;;;7.57;4.32;;;9.70;99.90;;;8.48;100.00;99519.13;5030376;28;20140;-68
2021/12/16 15:09:23;;;;;;;7.30;4.50;;;9.60;99.90;;;8.32;100.00;99520.84;5032106;28;20127;-69
2021/12/16 15:40:59;;;;;;;7.82;3.00;;;8.80;99.90;;;7.72;100.00;99525.25;5017492;28;20092;-69
2021/12/16 15:43:30;;;;;;;11.23;3.78;;;8.70;99.90;;;7.71;100.00;99526.97;5014235;28;20086;-69
2021/12/16 15:45:59;;;;;;;6.45;3.55;;;8.60;99.90;;;7.61;100.00;99522.66;5012444;28;20052;-69
2021/12/16 15:48:29;;;;;;;9.20;4.25;;;8.50;99.90;;;7.57;100.00;99536.41;5022439;28;20064;-69